首页
METAR-TAF:

METAR-TAF

机场 :

Naval Air Station Whidbey Island (Ault Field)

橡港, 华盛顿, 美国

纬度: 48-20-57N, 经度: 122-39-02W, 海拔: 14米

当前天气观测

该预报发布于53分钟前的00:56 UTC
风速14节,风向西
温度 12°C
湿度 54%
气压 1026 hPa
能見度: 16.1公里
少量云层高于4000英尺
散云层高于6500英尺
散云层高于10000英尺
多云层高于25000英尺

METAR: KNUW 080056Z 28014KT 10SM FEW040 SCT065 SCT100 BKN250 12/03 A3030 RMK AO2 SLP258 T01220028

时间: 18:49 (01:49 UTC)

预报

预报有效从07日的 23点(UTC)到 08日的 23点(UTC)
风速18节,风向西,有时为28节阵风
能见度10公里或以上
少量云层高于3500英尺
散云层高于5500英尺
散云层高于9000英尺
多云层高于25000英尺
附近有阵雨
短暂存在
从 08日的 03点(UTC)到 08日的 09点(UTC)
风速14节,风向西转西南
能见度10公里或以上
少量云层高于3500英尺
散云层高于5000英尺
散云层高于7500英尺
从 08日的 0900点(UTC)
风速10节,风向西转西南
能见度10公里或以上
散云层高于2000英尺
多云层高于3300英尺
多云层高于6000英尺
多云层高于20000英尺
附近有阵雨
短暂存在
从 08日的 12点(UTC)到 08日的 17点(UTC)
风速8节,风向
能見度: 9000
多云层高于2000英尺
多云层高于3300英尺, 积雨云.
阴天层高于5000英尺
阵雨, 轻雾
从 08日的 2000点(UTC)
风速6节,风向多变
能见度10公里或以上
少量云层高于3500英尺
散云层高于5000英尺
多云层高于11000英尺
多云层高于25000英尺

TAF: KNUW 0723/0823 27018G28KT 9999 VCSH FEW035 SCT055 SCT090 BKN250 650406 520005 QNH3025INS TEMPO 0803/0809 25014KT 9999 FEW035 SCT050 SCT075 FM080900 24010KT 9999 VCSH SCT020 BKN033 BKN060 BKN200 600000 500000 QNH3037INS TEMPO 0812/0817 17008KT 9000 SHRA BR BKN020 BKN033CB OVC050 FM082000 VRB06KT 9999 FEW035 SCT050 BKN110 BKN250 QNH3035INS T14/0723Z T06/0813Z FS30046

超过4000个机场的气象观测和天气预报(METAR&TAF报告)。

可查询的气象台以黄色和红色小点在地图上表示。

将鼠标移到小点上方,可查看气象台名称。

然后点击查看天气观测和预报。

如需切换地图:点击带黑十字的绿色按钮放大地图;点击带横线的绿色按钮缩小地图;或者点击绿色箭头查看邻近地区的地图。


METAR-TAF: